Watkins, Colorado
Current Conditions -  °F | °C
As of 6:52 PM on Saturday 25 Oct 2014 (Local Time) from KFTG Reporting Station
Few Clouds Few Clouds  
Wind Chill: 59°   Ceiling: Unl
Heat Index: 59°   Visibility: 50mi
Dew Point: 28°   Wind: 7mph
Humidity: 31%   Direction: 140°SE
Pressure: 30.06"   Gusts: NA
Location:  39.75°N, 104.61°W
Report Text: KFTG 260052Z 14006KT 50SM FEW200 15/M02 A3006
Loading
Personal Weather Stations






























Interactive Weather Map
Tropical Storm Tracking
New forecast layout! Learn more

10-Day Weather Forecast

Advertisements
Track Severe Weather on mobile